Mount Victoria, Maryland
Current Conditions -  °F | °C
As of 4:08 PM on Tuesday 21 Oct 2014 (Local Time) from K2W6 Reporting Station
Clear Clear  
Wind Chill: 64°   Ceiling: Unl
Heat Index: 64°   Visibility: 10mi
Dew Point: 45°   Wind: 5mph
Humidity: 49%   Direction: 100°E
Pressure: 29.82"   Gusts: NA
Location:  38.35°N, 76.9°W
Report Text: K2W6 212008Z AUTO 10004KT 10SM CLR 18/07 A2982 RMK AO1
Loading
Personal Weather Stations






























Interactive Weather Map
Tropical Storm Tracking
New forecast layout! Learn more

10-Day Weather Forecast

Advertisements
Track Severe Weather on mobile